createdAt,value
2022-10-13T00:01:20.870Z,98.70
2022-10-13T00:03:48.907Z,98.60
2022-10-13T00:06:25.490Z,98.60
2022-10-13T00:08:53.759Z,98.90
2022-10-13T00:11:25.211Z,98.80
2022-10-13T00:13:55.512Z,98.90
2022-10-13T00:16:24.125Z,98.70
2022-10-13T00:18:54.197Z,98.80
2022-10-13T00:21:24.251Z,98.90
2022-10-13T00:23:53.505Z,98.90
2022-10-13T00:26:23.221Z,99.00
2022-10-13T00:28:52.834Z,98.90
2022-10-13T00:31:24.163Z,99.10
2022-10-13T00:33:53.229Z,99.10
2022-10-13T00:36:23.485Z,99.20
2022-10-13T00:38:54.078Z,99.30
2022-10-13T00:41:22.107Z,99.30
2022-10-13T00:44:26.701Z,99.30
2022-10-13T00:46:54.425Z,99.30
2022-10-13T00:49:22.413Z,99.40
2022-10-13T00:51:51.152Z,99.40
2022-10-13T00:54:25.700Z,99.40
2022-10-13T00:56:54.915Z,99.30
2022-10-13T00:59:29.276Z,99.40
2022-10-13T01:01:59.612Z,99.30
2022-10-13T01:04:32.413Z,99.30
2022-10-13T01:07:01.553Z,99.20
2022-10-13T01:09:36.265Z,99.10
2022-10-13T01:12:38.270Z,99.10
2022-10-13T01:15:26.822Z,99.10
2022-10-13T01:18:09.539Z,99.10
2022-10-13T01:21:04.292Z,99.00
2022-10-13T01:24:06.615Z,99.10
2022-10-13T01:26:53.643Z,99.10
2022-10-13T01:29:40.456Z,99.00
2022-10-13T01:32:23.351Z,99.10
2022-10-13T01:35:18.338Z,99.10
2022-10-13T01:37:46.291Z,99.20
2022-10-13T01:40:29.165Z,99.10
2022-10-13T01:43:20.475Z,99.20
2022-10-13T01:45:54.530Z,99.30
2022-10-13T01:48:23.439Z,99.20
2022-10-13T01:50:54.471Z,99.40
2022-10-13T01:53:23.438Z,99.40
2022-10-13T01:56:00.239Z,99.40
2022-10-13T01:58:30.880Z,99.30
2022-10-13T02:01:23.452Z,99.10
2022-10-13T02:04:10.031Z,99.00
2022-10-13T02:06:53.669Z,99.10
2022-10-13T02:09:35.495Z,99.10
2022-10-13T02:14:59.802Z,99.20
2022-10-13T02:17:29.098Z,99.30
2022-10-13T02:19:58.626Z,99.30
2022-10-13T02:22:37.191Z,99.40
2022-10-13T02:25:06.041Z,99.40
2022-10-13T02:27:34.264Z,99.50
2022-10-13T02:30:02.231Z,99.50
2022-10-13T02:32:32.618Z,99.50
2022-10-13T02:35:00.529Z,99.50
2022-10-13T02:37:28.376Z,99.50
2022-10-13T02:39:56.620Z,99.50
2022-10-13T02:42:24.438Z,99.60
2022-10-13T02:44:56.716Z,99.70
2022-10-13T02:47:24.526Z,99.70
2022-10-13T03:04:28.807Z,99.70
2022-10-13T03:06:58.660Z,99.70
2022-10-13T03:09:26.808Z,99.70
2022-10-13T03:11:55.060Z,99.70
2022-10-13T03:14:42.659Z,99.70
2022-10-13T03:17:13.559Z,99.70
2022-10-13T03:19:42.090Z,99.60
2022-10-13T03:22:15.671Z,99.50
2022-10-13T03:24:44.031Z,99.40
2022-10-13T03:27:12.158Z,99.60
2022-10-13T03:29:41.110Z,99.70
2022-10-13T03:32:10.064Z,99.70
2022-10-13T03:34:38.039Z,99.70
2022-10-13T03:37:06.688Z,99.70
2022-10-13T03:39:40.795Z,99.70
2022-10-13T03:42:10.470Z,99.70
2022-10-13T03:44:39.486Z,99.70
2022-10-13T03:47:08.023Z,99.80
2022-10-13T03:49:37.727Z,99.90
2022-10-13T03:52:06.195Z,99.90
2022-10-13T03:54:34.566Z,99.90
2022-10-13T03:57:04.217Z,99.90
2022-10-13T03:59:36.565Z,99.90
2022-10-13T04:02:05.477Z,99.90
2022-10-13T04:04:34.530Z,99.90
2022-10-13T04:07:02.742Z,99.90
2022-10-13T04:09:31.232Z,99.90
2022-10-13T04:11:59.370Z,99.90
2022-10-13T04:14:30.211Z,99.90
2022-10-13T04:17:03.689Z,99.90
2022-10-13T04:19:31.771Z,99.90
2022-10-13T04:22:04.978Z,99.90
2022-10-13T04:24:33.079Z,99.90
2022-10-13T04:27:01.159Z,99.90
2022-10-13T04:29:29.517Z,99.90
2022-10-13T04:32:00.444Z,99.90
2022-10-13T04:34:28.534Z,99.90
2022-10-13T04:36:57.784Z,99.90
2022-10-13T04:39:25.826Z,99.90
2022-10-13T04:41:54.042Z,99.90
2022-10-13T04:44:22.478Z,99.90
2022-10-13T04:46:50.539Z,99.90
2022-10-13T04:49:21.244Z,99.90
2022-10-13T04:51:49.725Z,99.90
2022-10-13T04:54:17.917Z,99.90
2022-10-13T04:56:47.140Z,99.90
2022-10-13T04:59:15.266Z,99.90
2022-10-13T05:01:43.391Z,99.90
2022-10-13T05:04:14.722Z,99.90
2022-10-13T05:07:12.635Z,99.90
2022-10-13T05:09:32.236Z,99.90
2022-10-13T05:12:00.409Z,99.90
2022-10-13T05:14:28.564Z,99.90
2022-10-13T05:16:56.876Z,99.90
2022-10-13T05:19:25.187Z,99.90
2022-10-13T05:21:53.657Z,99.90
2022-10-13T05:24:36.706Z,99.90
2022-10-13T05:27:15.053Z,99.90
2022-10-13T05:29:43.273Z,99.90
2022-10-13T05:32:11.908Z,99.90
2022-10-13T05:34:39.932Z,99.90
2022-10-13T05:37:08.107Z,99.90
2022-10-13T05:39:36.393Z,99.90
2022-10-13T05:42:04.722Z,99.90
2022-10-13T05:44:32.993Z,99.90
2022-10-13T05:47:07.469Z,99.90
2022-10-13T05:49:40.067Z,99.90
2022-10-13T05:52:11.820Z,99.90
2022-10-13T05:54:44.944Z,99.90
2022-10-13T05:57:37.327Z,99.90
2022-10-13T06:00:17.218Z,99.90
2022-10-13T06:02:52.772Z,99.90
2022-10-13T06:05:24.027Z,99.90
2022-10-13T06:07:56.600Z,99.90
2022-10-13T06:10:25.829Z,99.90
2022-10-13T06:12:53.958Z,99.90
2022-10-13T06:15:27.076Z,99.90
2022-10-13T06:17:57.936Z,99.90
2022-10-13T06:20:27.798Z,99.90
2022-10-13T06:22:56.491Z,99.90
2022-10-13T06:25:25.191Z,99.90
2022-10-13T06:27:53.339Z,99.90
2022-10-13T06:30:21.373Z,99.90
2022-10-13T06:32:49.684Z,99.90
2022-10-13T06:35:18.229Z,99.90
2022-10-13T06:37:49.016Z,99.90
2022-10-13T06:40:17.541Z,99.90
2022-10-13T06:42:51.277Z,99.90
2022-10-13T06:45:22.651Z,99.90
2022-10-13T06:47:54.760Z,99.90
2022-10-13T06:50:23.910Z,99.90
2022-10-13T06:52:52.724Z,99.90
2022-10-13T06:55:20.964Z,99.80
2022-10-13T06:57:50.255Z,99.80
2022-10-13T07:00:18.557Z,99.80
2022-10-13T07:02:51.647Z,99.70
2022-10-13T07:05:20.049Z,99.60
2022-10-13T07:07:48.501Z,99.60
2022-10-13T07:10:16.697Z,99.50
2022-10-13T07:12:45.402Z,99.50
2022-10-13T07:15:13.580Z,99.40
2022-10-13T07:17:41.723Z,99.40
2022-10-13T07:20:10.650Z,99.30
2022-10-13T07:22:38.798Z,99.20
2022-10-13T07:25:07.392Z,99.30
2022-10-13T07:27:35.803Z,99.10
2022-10-13T07:30:04.942Z,99.10
2022-10-13T07:32:34.164Z,99.00
2022-10-13T07:35:04.726Z,99.00
2022-10-13T07:37:32.808Z,98.90
2022-10-13T07:40:01.266Z,98.80
2022-10-13T07:42:31.493Z,98.80
2022-10-13T07:45:00.031Z,98.70
2022-10-13T07:47:31.497Z,98.70
2022-10-13T07:49:59.882Z,98.60
2022-10-13T07:52:28.320Z,98.60
2022-10-13T07:55:12.994Z,98.50
2022-10-13T07:57:41.470Z,98.20
2022-10-13T08:00:10.756Z,98.20
2022-10-13T08:02:42.445Z,98.10
2022-10-13T08:05:10.588Z,97.90
2022-10-13T08:07:39.613Z,97.70
2022-10-13T08:10:11.034Z,97.60
2022-10-13T08:12:40.201Z,97.60
2022-10-13T08:15:10.582Z,97.50
2022-10-13T08:17:38.945Z,97.40
2022-10-13T08:20:07.734Z,97.30
2022-10-13T08:22:36.165Z,97.20
2022-10-13T08:25:04.562Z,97.10
2022-10-13T08:27:50.240Z,97.10
2022-10-13T08:30:20.556Z,96.90
2022-10-13T08:32:49.148Z,96.90
2022-10-13T08:35:17.600Z,96.80
2022-10-13T08:37:48.914Z,96.70
2022-10-13T08:40:23.296Z,96.70
2022-10-13T08:42:53.635Z,96.60
2022-10-13T08:45:47.429Z,96.50
2022-10-13T08:48:26.018Z,96.50
2022-10-13T08:51:02.329Z,96.40
2022-10-13T08:53:38.177Z,96.20
2022-10-13T08:56:26.453Z,96.40
2022-10-13T08:58:56.900Z,95.80
2022-10-13T09:01:32.893Z,95.50
2022-10-13T09:04:41.217Z,95.50
2022-10-13T09:07:09.947Z,95.30
2022-10-13T09:09:41.564Z,95.30
2022-10-13T09:12:13.936Z,95.10
2022-10-13T09:14:42.326Z,95.00
2022-10-13T09:17:21.211Z,95.20
2022-10-13T09:20:24.372Z,95.00
2022-10-13T09:23:18.349Z,94.80
2022-10-13T09:25:50.261Z,94.80
2022-10-13T09:28:37.997Z,94.70
2022-10-13T09:31:26.363Z,94.60
2022-10-13T09:34:03.962Z,94.10
2022-10-13T09:36:33.529Z,93.70
2022-10-13T09:39:11.960Z,93.60
2022-10-13T09:41:45.517Z,93.50
2022-10-13T09:44:32.309Z,93.50
2022-10-13T09:47:04.259Z,93.30
2022-10-13T09:49:55.386Z,93.30
2022-10-13T09:52:28.203Z,93.40
2022-10-13T09:55:01.347Z,93.30
2022-10-13T09:57:30.276Z,93.00
2022-10-13T10:00:27.845Z,92.90
2022-10-13T10:03:17.186Z,92.70
2022-10-13T10:06:03.163Z,92.40
2022-10-13T10:09:02.807Z,91.90
2022-10-13T10:11:58.242Z,92.40
2022-10-13T10:14:28.459Z,91.80
2022-10-13T10:17:22.221Z,91.90
2022-10-13T10:20:28.586Z,91.70
2022-10-13T10:23:20.562Z,91.70
2022-10-13T10:25:58.384Z,91.70
2022-10-13T10:28:38.411Z,91.70
2022-10-13T10:31:27.021Z,91.80
2022-10-13T10:34:15.400Z,91.60
2022-10-13T10:37:08.419Z,91.40
2022-10-13T10:39:45.520Z,91.40
2022-10-13T10:42:54.403Z,91.10
2022-10-13T10:45:36.070Z,90.40
2022-10-13T10:48:24.175Z,90.70
2022-10-13T10:50:53.577Z,90.50
2022-10-13T10:53:36.586Z,90.40
2022-10-13T10:56:30.819Z,90.10
2022-10-13T10:59:11.715Z,89.10
2022-10-13T11:02:16.462Z,88.80
2022-10-13T11:04:53.358Z,88.30
2022-10-13T11:07:24.194Z,88.00
2022-10-13T11:09:52.675Z,88.50
2022-10-13T11:12:21.484Z,88.00
2022-10-13T11:14:55.635Z,87.40
2022-10-13T11:17:32.246Z,85.00
2022-10-13T11:20:01.120Z,86.30
2022-10-13T11:22:32.214Z,86.20
2022-10-13T11:25:34.947Z,86.40
2022-10-13T11:28:21.408Z,84.40
2022-10-13T11:30:53.221Z,82.20
2022-10-13T11:33:51.193Z,83.40
2022-10-13T11:36:31.008Z,82.60
2022-10-13T11:42:11.874Z,77.10
2022-10-13T11:45:00.301Z,77.90
2022-10-13T11:47:56.011Z,78.10
2022-10-13T11:50:52.677Z,77.90
2022-10-13T11:53:26.499Z,78.60
2022-10-13T11:56:01.747Z,79.80
2022-10-13T11:58:31.820Z,80.20
2022-10-13T12:01:06.709Z,80.80
2022-10-13T12:07:08.321Z,79.60
2022-10-13T12:09:51.845Z,79.10
2022-10-13T12:12:24.527Z,78.50
2022-10-13T12:14:55.178Z,79.60
2022-10-13T12:17:27.649Z,80.00
2022-10-13T12:19:58.804Z,79.60
2022-10-13T12:22:29.856Z,78.90
2022-10-13T12:25:07.566Z,78.10
2022-10-13T12:27:51.198Z,78.20
2022-10-13T12:30:21.564Z,78.20
2022-10-13T12:32:52.364Z,78.90
2022-10-13T12:35:32.657Z,78.90
2022-10-13T12:38:17.605Z,78.90
2022-10-13T12:40:51.575Z,78.10
2022-10-13T12:43:26.021Z,77.50
2022-10-13T12:45:54.355Z,77.60
2022-10-13T12:48:34.456Z,77.60
2022-10-13T12:51:15.580Z,77.30
2022-10-13T12:53:46.345Z,77.20
2022-10-13T12:56:31.379Z,76.70
2022-10-13T12:59:00.150Z,75.60
2022-10-13T13:01:35.669Z,76.70
2022-10-13T13:04:23.094Z,75.60
2022-10-13T13:07:03.548Z,75.50
2022-10-13T13:09:38.242Z,75.60
2022-10-13T13:12:21.797Z,77.10
2022-10-13T13:14:55.233Z,76.10
2022-10-13T13:20:30.228Z,76.50
2022-10-13T13:22:58.635Z,76.00
2022-10-13T13:25:27.122Z,76.50
2022-10-13T13:27:55.226Z,76.90
2022-10-13T13:30:24.698Z,76.60
2022-10-13T13:32:52.733Z,77.30
2022-10-13T13:35:21.232Z,77.70
2022-10-13T13:37:56.296Z,76.90
2022-10-13T13:40:28.049Z,76.00
2022-10-13T13:42:57.798Z,76.40
2022-10-13T13:45:34.684Z,76.00
2022-10-13T13:48:04.922Z,76.30
2022-10-13T13:50:38.243Z,76.00
2022-10-13T13:53:07.610Z,76.00
2022-10-13T13:55:40.346Z,76.30
2022-10-13T13:58:12.033Z,76.10
2022-10-13T14:00:41.249Z,76.40
2022-10-13T14:03:10.239Z,76.60
2022-10-13T14:05:41.938Z,76.70
2022-10-13T14:08:11.262Z,77.00
2022-10-13T14:10:42.002Z,77.30
2022-10-13T14:13:11.527Z,77.20
2022-10-13T14:15:40.628Z,77.60
2022-10-13T14:18:10.000Z,77.90
2022-10-13T14:20:42.840Z,78.00
2022-10-13T14:23:12.162Z,78.00
2022-10-13T14:25:44.986Z,78.40
2022-10-13T14:28:18.007Z,78.40
2022-10-13T14:30:47.746Z,78.60
2022-10-13T14:33:19.928Z,78.80
2022-10-13T14:35:51.365Z,79.30
2022-10-13T14:38:21.208Z,79.10
2022-10-13T14:40:50.896Z,79.10
2022-10-13T14:43:20.039Z,79.20
2022-10-13T14:45:49.091Z,79.40
2022-10-13T14:48:19.495Z,79.60
2022-10-13T14:50:53.455Z,79.80
2022-10-13T14:53:21.409Z,79.90
2022-10-13T14:55:49.358Z,80.10
2022-10-13T14:58:17.641Z,80.30
2022-10-13T15:00:45.646Z,80.30
2022-10-13T15:03:13.628Z,81.20
2022-10-13T15:05:42.097Z,80.80
2022-10-13T15:08:10.134Z,81.10
2022-10-13T15:14:11.845Z,81.60
2022-10-13T15:16:40.203Z,81.90
2022-10-13T15:19:08.136Z,81.90
2022-10-13T15:21:36.210Z,82.20
2022-10-13T15:24:04.804Z,82.50
2022-10-13T15:26:33.190Z,82.80
2022-10-13T15:29:03.695Z,82.80
2022-10-13T15:31:32.051Z,83.10
2022-10-13T15:34:02.165Z,83.50
2022-10-13T15:36:30.278Z,83.50
2022-10-13T15:38:59.053Z,83.70
2022-10-13T15:41:27.256Z,83.80
2022-10-13T15:43:55.211Z,84.20
2022-10-13T15:46:24.616Z,84.30
2022-10-13T15:48:53.663Z,84.60
2022-10-13T15:51:24.620Z,85.00
2022-10-13T15:53:53.759Z,85.50
2022-10-13T15:56:21.866Z,85.40
2022-10-13T15:58:50.733Z,85.40
2022-10-13T16:01:19.528Z,85.60
2022-10-13T16:03:47.557Z,85.80
2022-10-13T16:06:15.917Z,85.90
2022-10-13T16:08:44.578Z,86.00
2022-10-13T16:11:21.454Z,86.20
2022-10-13T16:14:10.286Z,86.40
2022-10-13T16:16:38.717Z,86.50
2022-10-13T16:19:07.071Z,86.50
2022-10-13T16:21:35.493Z,86.70
2022-10-13T16:24:09.057Z,86.90
2022-10-13T16:26:37.603Z,87.10
2022-10-13T16:29:06.671Z,87.30
2022-10-13T16:31:37.812Z,87.30
2022-10-13T16:34:06.667Z,87.50
2022-10-13T16:36:35.173Z,87.70
2022-10-13T16:39:03.340Z,87.80
2022-10-13T16:41:31.825Z,87.90
2022-10-13T16:43:59.897Z,88.00
2022-10-13T16:46:28.332Z,88.20
2022-10-13T16:49:03.033Z,88.20
2022-10-13T16:51:31.451Z,88.30
2022-10-13T16:54:04.152Z,88.40
2022-10-13T16:56:33.221Z,88.60
2022-10-13T16:59:03.454Z,88.80
2022-10-13T17:01:32.454Z,89.00
2022-10-13T17:04:01.325Z,89.20
2022-10-13T17:06:29.802Z,89.20
2022-10-13T17:08:59.495Z,89.30
2022-10-13T17:11:30.548Z,89.60
2022-10-13T17:14:00.293Z,89.70
2022-10-13T17:16:33.021Z,89.90
2022-10-13T17:19:01.203Z,90.00
2022-10-13T17:21:37.144Z,90.00
2022-10-13T17:24:07.532Z,90.00
2022-10-13T17:26:35.952Z,90.10
2022-10-13T17:29:04.363Z,90.20
2022-10-13T17:31:32.187Z,90.30
2022-10-13T17:34:00.688Z,90.30
2022-10-13T17:36:32.068Z,90.40
2022-10-13T17:39:05.712Z,90.70
2022-10-13T17:41:35.123Z,90.50
2022-10-13T17:44:03.680Z,90.50
2022-10-13T17:46:37.821Z,90.70
2022-10-13T17:49:10.405Z,90.60
2022-10-13T17:51:39.195Z,90.70
2022-10-13T17:54:12.937Z,90.70
2022-10-13T17:56:43.953Z,90.80
2022-10-13T17:59:12.453Z,90.80
2022-10-13T18:01:42.388Z,90.80
2022-10-13T18:04:13.399Z,90.90
2022-10-13T18:06:46.069Z,91.00
2022-10-13T18:09:20.930Z,91.00
2022-10-13T18:11:51.302Z,91.00
2022-10-13T18:14:20.550Z,91.10
2022-10-13T18:16:50.804Z,91.20
2022-10-13T18:19:18.641Z,91.10
2022-10-13T18:21:47.220Z,91.20
2022-10-13T18:24:15.191Z,91.10
2022-10-13T18:26:42.997Z,91.20
2022-10-13T18:29:12.690Z,91.30
2022-10-13T18:31:41.745Z,91.40
2022-10-13T18:34:13.964Z,91.40
2022-10-13T18:36:47.509Z,91.50
2022-10-13T18:39:27.061Z,91.60
2022-10-13T18:41:57.228Z,91.70
2022-10-13T18:44:35.074Z,91.60
2022-10-13T18:47:03.371Z,91.70
2022-10-13T18:49:31.414Z,91.70
2022-10-13T18:52:01.360Z,91.80
2022-10-13T18:54:30.418Z,91.90
2022-10-13T18:56:58.625Z,92.00
2022-10-13T18:59:26.855Z,91.90
2022-10-13T19:01:54.643Z,92.10
2022-10-13T19:04:22.709Z,92.10
2022-10-13T19:06:51.869Z,92.20
2022-10-13T19:09:21.832Z,92.20
2022-10-13T19:11:55.477Z,92.30
2022-10-13T19:14:27.787Z,92.40
2022-10-13T19:17:02.012Z,92.40
2022-10-13T19:19:30.970Z,92.40
2022-10-13T19:22:01.377Z,92.40
2022-10-13T19:24:29.526Z,92.40
2022-10-13T19:26:57.538Z,92.40
2022-10-13T19:29:25.738Z,92.50
2022-10-13T19:31:53.585Z,92.40
2022-10-13T19:34:22.122Z,92.60
2022-10-13T19:36:50.323Z,92.70
2022-10-13T19:39:24.199Z,92.70
2022-10-13T19:41:54.462Z,92.70
2022-10-13T19:44:23.923Z,92.80
2022-10-13T19:46:55.244Z,93.10
2022-10-13T19:49:26.506Z,92.90
2022-10-13T19:51:57.940Z,93.00
2022-10-13T19:54:29.008Z,93.00
2022-10-13T19:56:59.694Z,93.10
2022-10-13T19:59:28.325Z,93.10
2022-10-13T20:01:56.973Z,93.20
2022-10-13T20:04:25.177Z,93.30
2022-10-13T20:06:53.013Z,93.20
2022-10-13T20:09:21.903Z,93.40
2022-10-13T20:11:51.804Z,93.40
2022-10-13T20:14:20.201Z,93.30
2022-10-13T20:16:49.061Z,93.40
2022-10-13T20:19:19.675Z,93.50
2022-10-13T20:21:51.926Z,93.50
2022-10-13T20:24:21.841Z,93.40
2022-10-13T20:26:50.463Z,93.40
2022-10-13T20:29:23.366Z,93.50
2022-10-13T20:31:51.725Z,93.50
2022-10-13T20:34:19.688Z,93.60
2022-10-13T20:36:51.228Z,93.60
2022-10-13T20:39:20.248Z,93.60
2022-10-13T20:41:48.048Z,93.60
2022-10-13T20:44:15.803Z,93.70
2022-10-13T20:46:43.850Z,93.80
2022-10-13T20:49:12.924Z,93.80
2022-10-13T20:51:42.976Z,93.80
2022-10-13T20:54:13.844Z,93.80
2022-10-13T20:56:42.163Z,93.80
2022-10-13T20:59:12.291Z,93.80
2022-10-13T21:01:40.719Z,93.70
2022-10-13T21:04:09.582Z,93.80
2022-10-13T21:06:37.795Z,93.80
2022-10-13T21:09:06.525Z,93.80
2022-10-13T21:11:35.521Z,93.80
2022-10-13T21:14:07.075Z,93.80
2022-10-13T21:16:37.708Z,93.80
2022-10-13T21:19:10.295Z,93.90
2022-10-13T21:21:38.542Z,93.90
2022-10-13T21:24:08.276Z,94.00
2022-10-13T21:26:36.810Z,94.00
2022-10-13T21:29:05.831Z,94.10
2022-10-13T21:31:35.878Z,94.10
2022-10-13T21:34:04.251Z,94.10
2022-10-13T21:36:33.843Z,94.20
2022-10-13T21:39:06.126Z,94.20
2022-10-13T21:41:34.468Z,94.20
2022-10-13T21:44:02.872Z,94.30
2022-10-13T21:46:34.528Z,94.30
2022-10-13T21:49:05.883Z,94.30
2022-10-13T21:51:40.612Z,94.40
2022-10-13T21:54:13.726Z,94.50
2022-10-13T21:56:42.534Z,94.40
2022-10-13T21:59:13.087Z,94.50
2022-10-13T22:01:41.995Z,94.70
2022-10-13T22:04:14.216Z,94.50
2022-10-13T22:06:42.395Z,94.70
2022-10-13T22:09:10.821Z,94.70
2022-10-13T22:11:40.132Z,94.70
2022-10-13T22:14:12.285Z,94.60
2022-10-13T22:16:46.151Z,94.70
2022-10-13T22:19:15.012Z,94.70
2022-10-13T22:21:45.706Z,94.70
2022-10-13T22:24:15.936Z,94.70
2022-10-13T22:26:45.506Z,94.70
2022-10-13T22:29:16.292Z,94.60
2022-10-13T22:31:44.174Z,94.60
2022-10-13T22:34:14.115Z,94.60
2022-10-13T22:36:45.061Z,94.60
2022-10-13T22:39:15.086Z,94.70
2022-10-13T22:41:43.094Z,94.60
2022-10-13T22:44:10.903Z,94.60
2022-10-13T22:46:39.957Z,94.60
2022-10-13T22:49:13.523Z,94.60
2022-10-13T22:51:41.788Z,94.60
2022-10-13T22:54:09.857Z,94.70
2022-10-13T22:56:37.703Z,94.70
2022-10-13T22:59:07.735Z,94.90
2022-10-13T23:01:35.721Z,94.90
2022-10-13T23:04:03.902Z,94.90
2022-10-13T23:06:34.843Z,94.90
2022-10-13T23:09:07.458Z,95.00
2022-10-13T23:11:36.537Z,95.30
2022-10-13T23:14:06.939Z,95.10
2022-10-13T23:16:35.062Z,95.20
2022-10-13T23:19:03.978Z,95.20
2022-10-13T23:21:31.856Z,95.30
2022-10-13T23:24:02.729Z,95.30
2022-10-13T23:26:32.252Z,95.40
2022-10-13T23:29:00.831Z,95.40
2022-10-13T23:31:29.395Z,95.40
2022-10-13T23:33:58.942Z,95.40
2022-10-13T23:36:29.563Z,95.50
2022-10-13T23:38:58.483Z,95.40
2022-10-13T23:41:27.211Z,95.70
2022-10-13T23:43:55.338Z,95.40
2022-10-13T23:46:23.523Z,95.50
2022-10-13T23:48:51.750Z,95.60
2022-10-13T23:51:23.386Z,95.60
2022-10-13T23:53:52.416Z,95.60
2022-10-13T23:56:21.141Z,95.70
2022-10-13T23:58:49.254Z,95.70
